Time;durP1;ratioP1;P1;durP2;ratioP2;P2;SDS_P1;SDS_P2;PMS_P1;PMS_P2;Temp;Humidity;BMP_temperature;BMP_pressure;BME280_temperature;BME280_humidity;BME280_pressure;Samples;Min_cycle;Max_cycle;Signal;HPM_P1;HPM_P2
2022/03/07 00:01:34;;;;;;;13.43;8.50;;;;;;;;;;5052652;28;20071;-64
2022/03/07 00:04:02;;;;;;;14.88;8.82;;;;;;;;;;5052316;28;20031;-64
2022/03/07 00:06:28;;;;;;;11.55;7.50;;;;;;;;;;5050552;28;20024;-65
2022/03/07 00:08:55;;;;;;;13.50;8.57;;;;;;;;;;5032453;28;20025;-60
2022/03/07 00:11:21;;;;;;;17.85;9.50;;;;;;;;;;5058333;28;20568;-60
2022/03/07 00:13:48;;;;;;;11.63;8.40;;;;;;;;;;5051907;28;20103;-64
2022/03/07 00:16:14;;;;;;;13.88;8.52;;;;;;;;;;5051969;28;20025;-64
2022/03/07 00:18:40;;;;;;;15.30;9.23;;;;;;;;;;5051659;28;20025;-64
2022/03/07 00:21:07;;;;;;;15.13;8.77;;;;;;;;;;5051580;28;20025;-64
2022/03/07 00:23:34;;;;;;;16.30;8.77;;;;;;;;;;5051936;28;20598;-64
2022/03/07 00:26:00;;;;;;;15.77;9.23;;;;;;;;;;5050382;28;20059;-62
2022/03/07 00:28:26;;;;;;;17.80;9.00;;;;;;;;;;5051631;28;20032;-61
2022/03/07 00:30:52;;;;;;;16.52;9.07;;;;;;;;;;5051828;28;20503;-63
2022/03/07 00:33:18;;;;;;;14.00;9.65;;;;;;;;;;5051485;28;20028;-63
2022/03/07 00:35:44;;;;;;;14.07;8.68;;;;;;;;;;5051529;28;20510;-65
2022/03/07 00:38:10;;;;;;;13.48;8.52;;;;;;;;;;5051337;28;20462;-62
2022/03/07 00:40:36;;;;;;;14.50;9.25;;;;;;;;;;5050287;28;20021;-64
2022/03/07 00:43:07;;;;;;;15.00;10.45;;;;;;;;;;5051190;28;20407;-64
2022/03/07 00:45:33;;;;;;;12.20;8.25;;;;;;;;;;5051384;28;20021;-63
2022/03/07 00:47:59;;;;;;;13.35;8.85;;;;;;;;;;5051108;28;20036;-64
2022/03/07 00:50:25;;;;;;;16.85;9.15;;;;;;;;;;5051143;28;20531;-64
2022/03/07 00:52:51;;;;;;;13.45;9.05;;;;;;;;;;5049085;28;20112;-64
2022/03/07 00:55:17;;;;;;;13.48;8.95;;;;;;;;;;5048243;28;20021;-60
2022/03/07 00:57:43;;;;;;;14.00;8.90;;;;;;;;;;5050720;28;20104;-60
2022/03/07 01:00:10;;;;;;;15.65;9.43;;;;;;;;;;5050728;28;20027;-60
2022/03/07 01:02:38;;;;;;;14.60;8.50;;;;;;;;;;5045973;28;20083;-60
2022/03/07 01:05:04;;;;;;;12.20;8.40;;;;;;;;;;5050790;28;20021;-60
2022/03/07 01:07:30;;;;;;;14.82;10.00;;;;;;;;;;5040191;28;20459;-60
2022/03/07 01:09:56;;;;;;;14.15;8.88;;;;;;;;;;5030638;28;20022;-60
2022/03/07 01:12:22;;;;;;;14.38;9.18;;;;;;;;;;5046219;28;20049;-63
2022/03/07 01:14:49;;;;;;;14.73;8.23;;;;;;;;;;5039596;28;20021;-63
2022/03/07 01:17:15;;;;;;;13.25;9.00;;;;;;;;;;5039123;28;20594;-60
2022/03/07 01:19:41;;;;;;;13.40;8.77;;;;;;;;;;5044499;28;20075;-64
2022/03/07 01:22:07;;;;;;;14.30;9.55;;;;;;;;;;5034653;28;20036;-62
2022/03/07 01:24:36;;;;;;;12.20;8.10;;;;;;;;;;5049998;28;20028;-65
2022/03/07 01:27:02;;;;;;;15.48;9.20;;;;;;;;;;5060123;28;20045;-65
2022/03/07 01:29:28;;;;;;;12.65;8.48;;;;;;;;;;5033376;28;20473;-61
2022/03/07 01:31:54;;;;;;;14.65;9.23;;;;;;;;;;5051272;28;20028;-62
2022/03/07 01:34:20;;;;;;;44.35;11.00;;;;;;;;;;5051915;28;20057;-63
2022/03/07 01:36:46;;;;;;;27.23;10.20;;;;;;;;;;5052177;28;20028;-62
2022/03/07 01:39:12;;;;;;;15.93;8.85;;;;;;;;;;5037008;28;20053;-65
2022/03/07 01:41:38;;;;;;;17.48;9.18;;;;;;;;;;5031855;28;20517;-64
2022/03/07 01:44:04;;;;;;;12.55;8.30;;;;;;;;;;5031869;28;20027;-62
2022/03/07 01:46:31;;;;;;;17.77;9.43;;;;;;;;;;5031717;28;20570;-64
2022/03/07 01:48:57;;;;;;;17.25;10.13;;;;;;;;;;5031862;28;20508;-65
2022/03/07 01:51:24;;;;;;;17.23;9.85;;;;;;;;;;5031741;28;20021;-62
2022/03/07 01:53:50;;;;;;;19.10;10.75;;;;;;;;;;5031691;28;20029;-64
2022/03/07 01:56:16;;;;;;;14.82;9.20;;;;;;;;;;5031695;28;20021;-66
2022/03/07 01:58:42;;;;;;;15.18;8.75;;;;;;;;;;5031878;28;20022;-62
2022/03/07 02:01:09;;;;;;;13.07;8.35;;;;;;;;;;5031721;28;20393;-64
2022/03/07 02:03:35;;;;;;;15.48;8.57;;;;;;;;;;5031873;28;20022;-66
2022/03/07 02:06:02;;;;;;;13.43;8.10;;;;;;;;;;5031783;28;20032;-64
2022/03/07 02:08:29;;;;;;;17.98;9.55;;;;;;;;;;5040291;28;20099;-61
2022/03/07 02:10:55;;;;;;;13.70;9.38;;;;;;;;;;5066880;28;20064;-61
2022/03/07 02:13:21;;;;;;;15.98;10.18;;;;;;;;;;5051570;28;20604;-62
2022/03/07 02:15:57;;;;;;;14.02;8.55;;;;;;;;;;5051232;28;20021;-65
2022/03/07 02:18:23;;;;;;;15.73;9.45;;;;;;;;;;5051566;28;20472;-63
2022/03/07 02:21:03;;;;;;;14.65;9.50;;;;;;;;;;5038389;28;20409;-68
2022/03/07 02:23:29;;;;;;;15.77;9.70;;;;;;;;;;5031552;28;20018;-64
2022/03/07 02:25:55;;;;;;;15.15;9.13;;;;;;;;;;5031406;28;20041;-66
2022/03/07 02:28:21;;;;;;;15.27;8.95;;;;;;;;;;5030189;28;20092;-66
2022/03/07 02:30:50;;;;;;;13.55;9.38;;;;;;;;;;5031564;28;20053;-64
2022/03/07 02:33:16;;;;;;;15.18;9.57;;;;;;;;;;5031308;28;20018;-67
2022/03/07 02:35:42;;;;;;;15.13;8.80;;;;;;;;;;5033603;28;20045;-62
2022/03/07 02:38:12;;;;;;;14.00;9.80;;;;;;;;;;5035007;28;20045;-62
2022/03/07 02:40:39;;;;;;;15.25;10.07;;;;;;;;;;5034972;28;20018;-66
2022/03/07 02:43:05;;;;;;;15.45;9.90;;;;;;;;;;5034864;28;20025;-63
2022/03/07 02:45:31;;;;;;;15.43;9.75;;;;;;;;;;5034979;28;20025;-64
2022/03/07 02:47:57;;;;;;;14.30;9.63;;;;;;;;;;5034813;28;20040;-65
2022/03/07 02:50:23;;;;;;;15.23;9.60;;;;;;;;;;5034872;28;20018;-64
2022/03/07 02:52:49;;;;;;;16.90;10.10;;;;;;;;;;5035194;28;20029;-62
2022/03/07 02:55:16;;;;;;;14.35;9.77;;;;;;;;;;5033397;28;20477;-65
2022/03/07 02:57:42;;;;;;;14.32;9.15;;;;;;;;;;5051942;28;20029;-66
2022/03/07 03:00:09;;;;;;;14.65;9.85;;;;;;;;;;5053105;28;20349;-65
2022/03/07 03:02:35;;;;;;;15.00;9.10;;;;;;;;;;5054050;28;20021;-65
2022/03/07 03:05:01;;;;;;;17.45;10.25;;;;;;;;;;5054488;28;20078;-64
2022/03/07 03:07:27;;;;;;;14.80;9.70;;;;;;;;;;5054369;28;20113;-61
2022/03/07 03:09:55;;;;;;;15.05;9.55;;;;;;;;;;5054322;28;20028;-62
2022/03/07 03:12:24;;;;;;;15.30;9.88;;;;;;;;;;5053962;28;20021;-62
2022/03/07 03:14:50;;;;;;;13.00;9.25;;;;;;;;;;5051816;28;20024;-65
2022/03/07 03:17:17;;;;;;;13.45;8.98;;;;;;;;;;5034262;28;20457;-66
2022/03/07 03:19:43;;;;;;;13.88;9.85;;;;;;;;;;5034012;28;20022;-62
2022/03/07 03:22:09;;;;;;;15.05;9.48;;;;;;;;;;5034053;28;20022;-62
2022/03/07 03:24:35;;;;;;;13.07;8.93;;;;;;;;;;5033896;28;20021;-64
2022/03/07 03:27:01;;;;;;;14.60;9.55;;;;;;;;;;5033870;28;20029;-63
2022/03/07 03:29:27;;;;;;;14.50;10.00;;;;;;;;;;5033214;28;20021;-63
2022/03/07 03:31:53;;;;;;;15.52;9.57;;;;;;;;;;5037520;28;20037;-65
2022/03/07 03:34:19;;;;;;;10.82;7.47;;;;;;;;;;5032674;28;20057;-61
2022/03/07 03:36:45;;;;;;;16.65;9.77;;;;;;;;;;5033887;28;20026;-62
2022/03/07 03:39:12;;;;;;;15.05;10.13;;;;;;;;;;5033517;28;20493;-64
2022/03/07 03:41:38;;;;;;;15.25;9.82;;;;;;;;;;5033969;28;20029;-62
2022/03/07 03:44:04;;;;;;;13.93;9.40;;;;;;;;;;5033845;28;20052;-62
2022/03/07 03:46:30;;;;;;;15.25;10.00;;;;;;;;;;5032560;28;20029;-65
2022/03/07 03:48:56;;;;;;;15.70;9.52;;;;;;;;;;5033425;28;20556;-63
2022/03/07 03:51:22;;;;;;;16.63;10.13;;;;;;;;;;5033565;28;20028;-65
2022/03/07 03:53:48;;;;;;;16.13;10.15;;;;;;;;;;5033682;28;20033;-65
2022/03/07 03:56:14;;;;;;;15.90;10.07;;;;;;;;;;5033649;28;20017;-64
2022/03/07 03:58:41;;;;;;;14.52;9.57;;;;;;;;;;5033620;28;20026;-63
2022/03/07 04:01:07;;;;;;;14.07;9.50;;;;;;;;;;5033570;28;20476;-62
2022/03/07 04:03:33;;;;;;;15.00;9.88;;;;;;;;;;5036863;28;20044;-62
2022/03/07 04:05:59;;;;;;;14.65;9.80;;;;;;;;;;5033265;28;20503;-61
2022/03/07 04:08:25;;;;;;;13.35;9.52;;;;;;;;;;5042502;28;20242;-62
2022/03/07 04:10:52;;;;;;;18.00;10.38;;;;;;;;;;5053386;28;20024;-64
2022/03/07 04:13:18;;;;;;;13.48;8.88;;;;;;;;;;5053112;28;20120;-63
2022/03/07 04:15:44;;;;;;;14.15;9.45;;;;;;;;;;5053427;28;20491;-63
2022/03/07 04:18:10;;;;;;;15.10;9.55;;;;;;;;;;5053167;28;20541;-65
2022/03/07 04:20:36;;;;;;;14.63;10.45;;;;;;;;;;5053000;28;20039;-64
2022/03/07 04:23:02;;;;;;;14.27;9.10;;;;;;;;;;5051642;28;20086;-64
2022/03/07 04:25:29;;;;;;;14.35;9.38;;;;;;;;;;5052873;28;20465;-66
2022/03/07 04:27:55;;;;;;;17.08;9.82;;;;;;;;;;5052985;28;20029;-67
2022/03/07 04:30:21;;;;;;;15.77;10.55;;;;;;;;;;5052951;28;20020;-68
2022/03/07 04:32:47;;;;;;;13.88;9.32;;;;;;;;;;5052388;28;20029;-66
2022/03/07 04:35:13;;;;;;;16.48;10.55;;;;;;;;;;5052496;28;20388;-66
2022/03/07 04:37:40;;;;;;;16.30;10.10;;;;;;;;;;5051196;28;20060;-66
2022/03/07 04:40:07;;;;;;;15.82;9.73;;;;;;;;;;5052639;28;20029;-62
2022/03/07 04:42:33;;;;;;;13.38;9.05;;;;;;;;;;5067919;28;20035;-67
2022/03/07 04:44:59;;;;;;;16.40;10.60;;;;;;;;;;5052567;28;20017;-65
2022/03/07 04:47:25;;;;;;;15.57;10.93;;;;;;;;;;5052676;28;20064;-64
2022/03/07 04:49:51;;;;;;;16.67;11.57;;;;;;;;;;5052572;28;20100;-62
2022/03/07 04:52:17;;;;;;;15.68;10.55;;;;;;;;;;5052535;28;20083;-65
2022/03/07 04:54:43;;;;;;;14.68;9.88;;;;;;;;;;5052470;28;20032;-63
2022/03/07 04:57:09;;;;;;;14.55;10.30;;;;;;;;;;5037877;28;20622;-62
2022/03/07 04:59:35;;;;;;;15.98;10.73;;;;;;;;;;5032300;28;20025;-62
2022/03/07 05:02:01;;;;;;;17.05;10.15;;;;;;;;;;5032551;28;20024;-61
2022/03/07 05:04:27;;;;;;;17.08;10.77;;;;;;;;;;5032402;28;20112;-65
2022/03/07 05:06:53;;;;;;;16.58;11.57;;;;;;;;;;5032306;28;20034;-61
2022/03/07 05:09:19;;;;;;;15.88;10.35;;;;;;;;;;5032387;28;20060;-64
2022/03/07 05:11:46;;;;;;;15.00;9.70;;;;;;;;;;5032185;28;20028;-63
2022/03/07 05:14:12;;;;;;;17.85;11.02;;;;;;;;;;5032394;28;20057;-65
2022/03/07 05:16:38;;;;;;;16.33;11.13;;;;;;;;;;5032126;28;20025;-64
2022/03/07 05:19:04;;;;;;;14.77;9.80;;;;;;;;;;5032163;28;20032;-63
2022/03/07 05:21:30;;;;;;;16.40;10.75;;;;;;;;;;5032113;28;20020;-65
2022/03/07 05:23:56;;;;;;;18.42;11.50;;;;;;;;;;5032066;28;20036;-66
2022/03/07 05:26:22;;;;;;;17.95;11.23;;;;;;;;;;5030665;28;20064;-66
2022/03/07 05:28:48;;;;;;;16.42;10.73;;;;;;;;;;5032015;28;20033;-62
2022/03/07 05:31:15;;;;;;;15.43;10.60;;;;;;;;;;5030782;28;20452;-61
2022/03/07 05:33:41;;;;;;;17.30;11.23;;;;;;;;;;5030833;28;20029;-64
2022/03/07 05:36:07;;;;;;;19.35;11.48;;;;;;;;;;5032220;28;20064;-65
2022/03/07 05:38:34;;;;;;;15.50;10.82;;;;;;;;;;5035172;28;20043;-62
2022/03/07 05:41:00;;;;;;;14.13;9.15;;;;;;;;;;5030708;28;20030;-66
2022/03/07 05:43:26;;;;;;;16.67;9.68;;;;;;;;;;5031611;28;20028;-63
2022/03/07 05:45:52;;;;;;;17.00;9.63;;;;;;;;;;5031754;28;20022;-63
2022/03/07 05:48:18;;;;;;;13.95;9.93;;;;;;;;;;5031692;28;20120;-67
2022/03/07 05:50:44;;;;;;;16.17;10.55;;;;;;;;;;5032045;28;20018;-62
2022/03/07 05:53:10;;;;;;;16.27;10.15;;;;;;;;;;5031924;28;20026;-67
2022/03/07 05:55:36;;;;;;;14.65;10.07;;;;;;;;;;5031630;28;20025;-64
2022/03/07 05:58:03;;;;;;;18.00;10.00;;;;;;;;;;5031689;28;20412;-65
2022/03/07 06:00:30;;;;;;;15.75;10.75;;;;;;;;;;5031657;28;20017;-65
2022/03/07 06:02:56;;;;;;;15.90;10.77;;;;;;;;;;5031579;28;20032;-66
2022/03/07 06:05:23;;;;;;;15.55;10.68;;;;;;;;;;5031717;28;20041;-64
2022/03/07 06:07:49;;;;;;;17.35;10.30;;;;;;;;;;5031480;28;20034;-64
2022/03/07 06:10:15;;;;;;;18.40;10.38;;;;;;;;;;5033269;28;20022;-63
2022/03/07 06:12:41;;;;;;;17.17;11.55;;;;;;;;;;5033929;28;20048;-63
2022/03/07 06:15:07;;;;;;;17.38;11.40;;;;;;;;;;5035092;28;20376;-65
2022/03/07 06:17:34;;;;;;;18.88;11.18;;;;;;;;;;5035530;28;20033;-63
2022/03/07 06:20:00;;;;;;;15.30;9.85;;;;;;;;;;5035488;28;20036;-65
2022/03/07 06:22:26;;;;;;;19.85;11.85;;;;;;;;;;5035265;28;20029;-67
2022/03/07 06:24:52;;;;;;;17.88;12.02;;;;;;;;;;5035384;28;20087;-62
2022/03/07 06:27:18;;;;;;;16.45;11.00;;;;;;;;;;5035076;28;20044;-62
2022/03/07 06:29:45;;;;;;;17.58;10.15;;;;;;;;;;5033744;28;20033;-65
2022/03/07 06:32:11;;;;;;;17.45;10.93;;;;;;;;;;5034453;28;20018;-66
2022/03/07 06:34:37;;;;;;;17.63;11.32;;;;;;;;;;5035059;28;20025;-68
2022/03/07 06:37:03;;;;;;;16.23;10.65;;;;;;;;;;5034912;28;20159;-68
2022/03/07 06:39:29;;;;;;;18.23;11.23;;;;;;;;;;5034721;28;20045;-65
2022/03/07 06:41:55;;;;;;;15.35;10.45;;;;;;;;;;5034682;28;20029;-67
2022/03/07 06:44:22;;;;;;;16.63;10.60;;;;;;;;;;5034903;28;20026;-66
2022/03/07 06:46:48;;;;;;;15.02;10.35;;;;;;;;;;5034538;28;20025;-66
2022/03/07 06:49:14;;;;;;;16.17;9.82;;;;;;;;;;5034572;28;20519;-66
2022/03/07 06:51:40;;;;;;;13.82;10.07;;;;;;;;;;5034634;28;20105;-64
2022/03/07 06:54:07;;;;;;;18.25;10.43;;;;;;;;;;5033299;28;20025;-66
2022/03/07 06:56:33;;;;;;;16.90;11.10;;;;;;;;;;5043924;28;20023;-64
2022/03/07 06:58:59;;;;;;;17.50;10.63;;;;;;;;;;5054087;28;20028;-65
2022/03/07 07:01:26;;;;;;;15.57;10.75;;;;;;;;;;5052679;28;20025;-65
2022/03/07 07:03:52;;;;;;;17.17;11.18;;;;;;;;;;5053862;28;20025;-65
2022/03/07 07:06:18;;;;;;;17.00;10.63;;;;;;;;;;5054091;28;20511;-64
2022/03/07 07:08:44;;;;;;;15.10;10.38;;;;;;;;;;5054323;28;20037;-63
2022/03/07 07:11:10;;;;;;;15.95;10.25;;;;;;;;;;5054274;28;20472;-65
2022/03/07 07:13:36;;;;;;;15.73;10.02;;;;;;;;;;5053519;28;20037;-63
2022/03/07 07:16:02;;;;;;;16.15;10.35;;;;;;;;;;5054327;28;20040;-63
2022/03/07 07:18:28;;;;;;;15.88;10.10;;;;;;;;;;5054060;28;20036;-67
2022/03/07 07:20:54;;;;;;;16.58;11.18;;;;;;;;;;5053646;28;20100;-68
2022/03/07 07:23:21;;;;;;;18.33;11.10;;;;;;;;;;5052691;28;20033;-67
2022/03/07 07:25:48;;;;;;;14.77;9.95;;;;;;;;;;5053968;28;20051;-63
2022/03/07 07:28:14;;;;;;;14.35;8.68;;;;;;;;;;5053733;28;20060;-63
2022/03/07 07:30:40;;;;;;;16.20;9.77;;;;;;;;;;5053870;28;20021;-67
2022/03/07 07:33:07;;;;;;;16.73;10.55;;;;;;;;;;5053950;28;20021;-63
2022/03/07 07:35:36;;;;;;;15.15;9.15;;;;;;;;;;5053810;28;20048;-65
2022/03/07 07:38:02;;;;;;;14.90;10.00;;;;;;;;;;5053178;28;20502;-62
2022/03/07 07:40:28;;;;;;;15.75;10.88;;;;;;;;;;5052906;28;20024;-63
2022/03/07 07:42:54;;;;;;;16.50;9.98;;;;;;;;;;5052619;28;20021;-63
2022/03/07 07:45:20;;;;;;;17.13;10.27;;;;;;;;;;5052928;28;20427;-64
2022/03/07 07:47:46;;;;;;;16.55;10.65;;;;;;;;;;5052881;28;20065;-62
2022/03/07 07:50:12;;;;;;;15.05;10.02;;;;;;;;;;5053104;28;20025;-67
2022/03/07 07:52:38;;;;;;;15.68;9.52;;;;;;;;;;5053158;28;20104;-64
2022/03/07 07:55:05;;;;;;;15.90;9.40;;;;;;;;;;5053036;28;20036;-65
2022/03/07 07:57:32;;;;;;;14.95;9.73;;;;;;;;;;5052862;28;20025;-67
2022/03/07 07:59:58;;;;;;;15.98;9.38;;;;;;;;;;5053060;28;20009;-63
2022/03/07 08:02:24;;;;;;;15.85;9.95;;;;;;;;;;5052968;28;20107;-66
2022/03/07 08:04:53;;;;;;;16.67;9.77;;;;;;;;;;5053232;28;20110;-65
2022/03/07 08:07:19;;;;;;;18.70;10.32;;;;;;;;;;5053341;28;20487;-67
2022/03/07 08:09:45;;;;;;;16.83;9.90;;;;;;;;;;5051867;28;20025;-66
2022/03/07 08:12:17;;;;;;;20.52;11.40;;;;;;;;;;5051764;28;20025;-68
2022/03/07 08:14:43;;;;;;;19.80;10.27;;;;;;;;;;5053059;28;20025;-65
2022/03/07 08:17:09;;;;;;;17.63;10.07;;;;;;;;;;5045717;28;20055;-65
2022/03/07 08:19:35;;;;;;;15.57;9.68;;;;;;;;;;5052300;28;20023;-68
2022/03/07 08:22:01;;;;;;;15.65;10.45;;;;;;;;;;5051939;28;20025;-63
2022/03/07 08:24:27;;;;;;;16.75;10.45;;;;;;;;;;5050866;28;20021;-67
2022/03/07 08:26:53;;;;;;;17.65;9.60;;;;;;;;;;5052427;28;20621;-67
2022/03/07 08:29:19;;;;;;;15.23;9.73;;;;;;;;;;5052561;28;20521;-67
2022/03/07 08:31:45;;;;;;;15.82;10.43;;;;;;;;;;5052076;28;20052;-65
2022/03/07 08:34:11;;;;;;;16.33;9.65;;;;;;;;;;5048968;28;20035;-64
2022/03/07 08:36:38;;;;;;;15.70;10.18;;;;;;;;;;5052269;28;20025;-64
2022/03/07 08:39:04;;;;;;;15.52;10.07;;;;;;;;;;5051595;28;20056;-64
2022/03/07 08:41:30;;;;;;;17.50;9.60;;;;;;;;;;5050766;28;20044;-67
2022/03/07 08:43:56;;;;;;;17.55;10.60;;;;;;;;;;5052133;28;20388;-68
2022/03/07 08:46:24;;;;;;;15.23;10.13;;;;;;;;;;5052156;28;20052;-66
2022/03/07 08:48:50;;;;;;;19.10;11.18;;;;;;;;;;5052379;28;20029;-68
2022/03/07 08:51:17;;;;;;;17.67;10.98;;;;;;;;;;5050432;28;20021;-63
2022/03/07 08:53:43;;;;;;;16.70;10.38;;;;;;;;;;5045715;28;20029;-63
2022/03/07 08:56:09;;;;;;;15.98;10.27;;;;;;;;;;5050544;28;20021;-65
2022/03/07 08:58:35;;;;;;;16.02;9.90;;;;;;;;;;5050726;28;20048;-67
2022/03/07 09:01:01;;;;;;;14.77;9.52;;;;;;;;;;5051453;28;20031;-62
2022/03/07 09:03:27;;;;;;;18.77;9.77;;;;;;;;;;5051560;28;20025;-68
2022/03/07 09:05:53;;;;;;;17.67;10.15;;;;;;;;;;5050630;28;20116;-63
2022/03/07 09:08:19;;;;;;;18.08;10.85;;;;;;;;;;5049169;28;20033;-68
2022/03/07 09:10:45;;;;;;;17.13;10.10;;;;;;;;;;5032024;28;20416;-67
2022/03/07 09:13:11;;;;;;;15.35;9.90;;;;;;;;;;5031633;28;20100;-68
2022/03/07 09:15:37;;;;;;;14.27;8.88;;;;;;;;;;5031378;28;20021;-67
2022/03/07 09:18:03;;;;;;;16.95;9.70;;;;;;;;;;5031648;28;20033;-67
2022/03/07 09:20:29;;;;;;;14.10;8.82;;;;;;;;;;5031656;28;20060;-68
2022/03/07 09:22:55;;;;;;;17.98;10.18;;;;;;;;;;5031796;28;20746;-66
2022/03/07 09:25:21;;;;;;;20.88;9.70;;;;;;;;;;5031781;28;20018;-67
2022/03/07 09:27:49;;;;;;;27.23;10.85;;;;;;;;;;5035378;28;20041;-67
2022/03/07 09:30:16;;;;;;;25.67;9.95;;;;;;;;;;5031501;28;20021;-68
2022/03/07 09:32:42;;;;;;;17.52;9.23;;;;;;;;;;5031433;28;20069;-66
2022/03/07 09:35:09;;;;;;;28.40;9.23;;;;;;;;;;5031219;28;20098;-66
2022/03/07 09:37:35;;;;;;;30.23;10.63;;;;;;;;;;5041019;28;20400;-66
2022/03/07 09:40:01;;;;;;;18.23;9.70;;;;;;;;;;5042568;28;20108;-62
2022/03/07 09:42:27;;;;;;;17.85;9.25;;;;;;;;;;5051512;28;20021;-62
2022/03/07 09:44:54;;;;;;;19.88;9.75;;;;;;;;;;5050941;28;20037;-65
2022/03/07 09:47:21;;;;;;;20.85;8.65;;;;;;;;;;5053938;28;20041;-65
2022/03/07 09:49:48;;;;;;;25.60;10.50;;;;;;;;;;5055206;28;20083;-64
2022/03/07 09:52:14;;;;;;;20.25;9.15;;;;;;;;;;5054494;28;20108;-66
2022/03/07 09:54:40;;;;;;;20.45;9.85;;;;;;;;;;5053073;28;20024;-65
2022/03/07 09:57:06;;;;;;;22.60;9.25;;;;;;;;;;5054213;28;20036;-63
2022/03/07 09:59:34;;;;;;;17.35;8.55;;;;;;;;;;5054557;28;20116;-64
2022/03/07 10:02:02;;;;;;;17.90;8.98;;;;;;;;;;5055497;28;20071;-65
2022/03/07 10:04:29;;;;;;;16.85;8.50;;;;;;;;;;5055743;28;20039;-66
2022/03/07 10:06:55;;;;;;;19.58;10.07;;;;;;;;;;5055733;28;20021;-63
2022/03/07 10:09:22;;;;;;;14.50;8.50;;;;;;;;;;5055450;28;20090;-66
2022/03/07 10:11:52;;;;;;;14.90;7.88;;;;;;;;;;5049001;28;20053;-65
2022/03/07 10:14:18;;;;;;;13.65;7.70;;;;;;;;;;5055310;28;20033;-65
2022/03/07 10:16:45;;;;;;;13.48;8.18;;;;;;;;;;5055682;28;20021;-66
2022/03/07 10:19:15;;;;;;;18.13;8.93;;;;;;;;;;5055426;28;20484;-65
2022/03/07 10:21:50;;;;;;;14.63;8.38;;;;;;;;;;5055523;28;20021;-65
2022/03/07 10:24:16;;;;;;;15.85;9.77;;;;;;;;;;5070998;28;20021;-63
2022/03/07 10:26:43;;;;;;;16.65;9.43;;;;;;;;;;5052328;28;20388;-65
2022/03/07 10:29:09;;;;;;;16.05;8.27;;;;;;;;;;5052038;28;20096;-66
2022/03/07 10:31:37;;;;;;;13.70;7.97;;;;;;;;;;5055004;28;20652;-66
2022/03/07 10:34:07;;;;;;;11.43;7.25;;;;;;;;;;5054827;28;20017;-66
2022/03/07 10:36:36;;;;;;;14.40;8.68;;;;;;;;;;5054948;28;20025;-66
2022/03/07 10:39:04;;;;;;;15.93;8.98;;;;;;;;;;5054862;28;20095;-65
2022/03/07 10:41:42;;;;;;;14.18;8.10;;;;;;;;;;5054922;28;20024;-66
2022/03/07 10:44:09;;;;;;;12.32;7.95;;;;;;;;;;5054809;28;20035;-66
2022/03/07 10:46:35;;;;;;;15.05;8.25;;;;;;;;;;5054575;28;20112;-65
2022/03/07 10:49:01;;;;;;;15.65;8.27;;;;;;;;;;5048153;28;20410;-66
2022/03/07 10:51:27;;;;;;;15.88;8.52;;;;;;;;;;5054603;28;20017;-65
2022/03/07 10:53:54;;;;;;;13.18;7.32;;;;;;;;;;5054733;28;20029;-65
2022/03/07 10:56:21;;;;;;;12.65;7.88;;;;;;;;;;5054100;28;20062;-66
2022/03/07 10:58:53;;;;;;;13.80;8.27;;;;;;;;;;5054343;28;20064;-66
2022/03/07 11:01:33;;;;;;;13.65;8.30;;;;;;;;;;5054362;28;20515;-65
2022/03/07 11:04:00;;;;;;;13.50;8.45;;;;;;;;;;5054427;28;20020;-66
2022/03/07 11:06:27;;;;;;;14.18;8.35;;;;;;;;;;5054454;28;20025;-65
2022/03/07 11:08:54;;;;;;;13.05;8.13;;;;;;;;;;5054300;28;20029;-65
2022/03/07 11:11:21;;;;;;;15.32;8.80;;;;;;;;;;5069624;28;20021;-66
2022/03/07 11:13:51;;;;;;;12.80;7.75;;;;;;;;;;5054358;28;20032;-66
2022/03/07 11:16:17;;;;;;;15.57;8.52;;;;;;;;;;5054446;28;20104;-66
2022/03/07 11:18:47;;;;;;;16.17;9.75;;;;;;;;;;5038410;28;20071;-66
2022/03/07 11:21:13;;;;;;;14.73;8.50;;;;;;;;;;5034257;28;20030;-66
2022/03/07 11:23:39;;;;;;;12.93;7.97;;;;;;;;;;5034338;28;20024;-66
2022/03/07 11:26:06;;;;;;;15.60;8.75;;;;;;;;;;5034210;28;20362;-66
2022/03/07 11:28:33;;;;;;;14.15;7.93;;;;;;;;;;5033843;28;20045;-66
2022/03/07 11:30:59;;;;;;;12.25;8.07;;;;;;;;;;5033672;28;20060;-67
2022/03/07 11:33:33;;;;;;;14.30;9.23;;;;;;;;;;5033885;28;20029;-65
2022/03/07 11:36:00;;;;;;;13.88;8.93;;;;;;;;;;5033812;28;20037;-66
2022/03/07 11:38:35;;;;;;;13.25;7.78;;;;;;;;;;5033807;28;20045;-66
2022/03/07 11:41:10;;;;;;;15.48;8.23;;;;;;;;;;5033954;28;20503;-66
2022/03/07 11:43:48;;;;;;;12.75;8.35;;;;;;;;;;5033692;28;20112;-66
2022/03/07 11:46:22;;;;;;;14.63;8.77;;;;;;;;;;5033960;28;20037;-66
2022/03/07 11:48:48;;;;;;;12.95;8.63;;;;;;;;;;5042887;28;20435;-65
2022/03/07 11:51:21;;;;;;;12.85;8.38;;;;;;;;;;5053479;28;20029;-65
2022/03/07 11:53:48;;;;;;;13.20;8.27;;;;;;;;;;5053104;28;20025;-64
2022/03/07 11:56:18;;;;;;;13.93;8.20;;;;;;;;;;5052205;28;20029;-66
2022/03/07 11:58:53;;;;;;;12.98;8.10;;;;;;;;;;5053634;28;20028;-65
2022/03/07 12:01:20;;;;;;;14.13;8.57;;;;;;;;;;5053512;28;20017;-66
2022/03/07 12:03:47;;;;;;;15.43;9.77;;;;;;;;;;5068385;28;20541;-65
2022/03/07 12:06:15;;;;;;;15.05;9.48;;;;;;;;;;5053322;28;20104;-66
2022/03/07 12:08:54;;;;;;;14.32;9.18;;;;;;;;;;5052286;28;20037;-66
2022/03/07 12:11:34;;;;;;;14.85;9.52;;;;;;;;;;5053161;28;20029;-66
2022/03/07 12:14:04;;;;;;;16.02;9.00;;;;;;;;;;5053081;28;20025;-66
2022/03/07 12:16:33;;;;;;;15.52;9.35;;;;;;;;;;5053190;28;20048;-65
2022/03/07 12:19:25;;;;;;;13.20;8.85;;;;;;;;;;5053171;28;20056;-65
2022/03/07 12:21:51;;;;;;;14.80;9.10;;;;;;;;;;5051937;28;20118;-66
2022/03/07 12:24:19;;;;;;;15.57;8.98;;;;;;;;;;5046595;28;20762;-66
2022/03/07 12:26:57;;;;;;;12.35;8.85;;;;;;;;;;5052898;28;20052;-66
2022/03/07 12:29:24;;;;;;;12.93;8.90;;;;;;;;;;5052624;28;20086;-65
2022/03/07 12:31:57;;;;;;;15.07;9.55;;;;;;;;;;5052785;28;20387;-66
2022/03/07 12:34:25;;;;;;;17.13;10.15;;;;;;;;;;5052756;28;20106;-66
2022/03/07 12:37:02;;;;;;;17.65;11.40;;;;;;;;;;5052940;28;20671;-65
2022/03/07 12:39:29;;;;;;;15.13;9.95;;;;;;;;;;5051230;28;20052;-66
2022/03/07 12:41:59;;;;;;;15.63;10.73;;;;;;;;;;5052411;28;20435;-66
2022/03/07 12:44:25;;;;;;;16.08;10.25;;;;;;;;;;5052328;28;20021;-65
2022/03/07 12:46:51;;;;;;;16.23;9.95;;;;;;;;;;5052259;28;20472;-66
2022/03/07 12:49:18;;;;;;;15.43;9.48;;;;;;;;;;5052475;28;20029;-66
2022/03/07 12:51:44;;;;;;;15.07;9.05;;;;;;;;;;5052533;28;20053;-64
2022/03/07 12:54:10;;;;;;;15.13;10.00;;;;;;;;;;5052532;28;20029;-65
2022/03/07 12:56:36;;;;;;;16.42;11.07;;;;;;;;;;5052315;28;20032;-66
2022/03/07 12:59:03;;;;;;;16.00;10.43;;;;;;;;;;5052251;28;20598;-65
2022/03/07 13:01:29;;;;;;;16.23;10.38;;;;;;;;;;5052254;28;20025;-66
2022/03/07 13:03:56;;;;;;;15.50;9.75;;;;;;;;;;5051047;28;20021;-65
2022/03/07 13:06:25;;;;;;;15.43;10.07;;;;;;;;;;5052252;28;20104;-66
2022/03/07 13:08:55;;;;;;;15.27;10.23;;;;;;;;;;5050696;28;20111;-65
2022/03/07 13:11:31;;;;;;;16.23;10.65;;;;;;;;;;5052029;28;20025;-66
2022/03/07 13:13:57;;;;;;;16.40;10.75;;;;;;;;;;5051928;28;20388;-66
2022/03/07 13:16:27;;;;;;;16.80;10.20;;;;;;;;;;5051786;28;20656;-66
2022/03/07 13:18:57;;;;;;;14.05;9.32;;;;;;;;;;5051905;28;20078;-66
2022/03/07 13:21:23;;;;;;;15.65;9.85;;;;;;;;;;5052084;28;20025;-66
2022/03/07 13:23:49;;;;;;;17.10;11.43;;;;;;;;;;5051891;28;20028;-66
2022/03/07 13:26:21;;;;;;;15.57;10.50;;;;;;;;;;5052076;28;20078;-66
2022/03/07 13:28:47;;;;;;;15.90;10.23;;;;;;;;;;5049062;28;20029;-66
2022/03/07 13:31:14;;;;;;;15.00;9.90;;;;;;;;;;5032823;28;20029;-66
2022/03/07 13:33:41;;;;;;;15.63;10.18;;;;;;;;;;5032133;28;20025;-65
2022/03/07 13:36:13;;;;;;;13.60;9.07;;;;;;;;;;5031640;28;20567;-66
2022/03/07 13:38:40;;;;;;;14.10;10.43;;;;;;;;;;5046060;28;20056;-65
2022/03/07 13:41:07;;;;;;;16.67;10.35;;;;;;;;;;5050541;28;20025;-66
2022/03/07 13:43:34;;;;;;;18.85;11.77;;;;;;;;;;5051103;28;20111;-65
2022/03/07 13:46:01;;;;;;;16.10;10.27;;;;;;;;;;5048326;28;20084;-63
2022/03/07 13:48:27;;;;;;;15.80;10.70;;;;;;;;;;5034806;28;20079;-64
2022/03/07 13:50:53;;;;;;;15.50;10.10;;;;;;;;;;5050633;28;20051;-65
2022/03/07 13:53:20;;;;;;;20.10;11.25;;;;;;;;;;5040195;28;20061;-65
2022/03/07 13:55:51;;;;;;;18.63;12.63;;;;;;;;;;5033789;28;20028;-65
2022/03/07 13:58:23;;;;;;;17.40;10.98;;;;;;;;;;5050367;28;20403;-65
2022/03/07 14:00:51;;;;;;;29.60;13.23;;;;;;;;;;5048769;28;20099;-63
2022/03/07 14:03:17;;;;;;;19.98;12.20;;;;;;;;;;5045554;28;20036;-66
2022/03/07 14:05:51;;;;;;;19.55;10.82;;;;;;;;;;5051420;28;20032;-63
2022/03/07 14:08:18;;;;;;;21.75;11.68;;;;;;;;;;5036471;28;20037;-63
2022/03/07 14:10:44;;;;;;;20.10;11.02;;;;;;;;;;5046734;28;20022;-65
2022/03/07 14:13:11;;;;;;;16.60;10.35;;;;;;;;;;5050109;28;20029;-65
2022/03/07 14:15:38;;;;;;;17.20;10.38;;;;;;;;;;5050855;28;20091;-63
2022/03/07 14:18:08;;;;;;;18.10;10.60;;;;;;;;;;5051204;28;20033;-65
2022/03/07 14:20:34;;;;;;;15.63;9.98;;;;;;;;;;5038338;28;20407;-66
2022/03/07 14:23:01;;;;;;;16.60;10.13;;;;;;;;;;5051273;28;20036;-65